Time;durP1;ratioP1;P1;durP2;ratioP2;P2;SDS_P1;SDS_P2;PMS_P1;PMS_P2;Temp;Humidity;BMP_temperature;BMP_pressure;BME280_temperature;BME280_humidity;BME280_pressure;Samples;Min_cycle;Max_cycle;Signal;HPM_P1;HPM_P2
2021/01/22 00:01:22;;;;;;;1.20;1.10;;;8.40;99.90;;;;;;5092294;28;20178;-84
2021/01/22 00:03:48;;;;;;;1.07;1.03;;;8.30;99.90;;;;;;5092147;28;20333;-84
2021/01/22 00:06:13;;;;;;;2.00;1.70;;;8.20;99.90;;;;;;5092324;28;20175;-84
2021/01/22 00:08:39;;;;;;;1.57;1.47;;;8.20;99.90;;;;;;5092157;28;20183;-84
2021/01/22 00:11:05;;;;;;;2.00;1.50;;;8.10;99.90;;;;;;5093184;28;20195;-84
2021/01/22 00:13:30;;;;;;;1.40;1.30;;;8.10;99.90;;;;;;5093034;28;20657;-84
2021/01/22 00:15:56;;;;;;;2.00;1.37;;;8.10;99.90;;;;;;5096026;28;20170;-83
2021/01/22 00:18:21;;;;;;;1.40;1.30;;;8.00;99.90;;;;;;5097419;28;20221;-84
2021/01/22 00:20:47;;;;;;;1.27;1.17;;;8.00;99.90;;;;;;5095988;28;20174;-83
2021/01/22 00:23:13;;;;;;;1.80;1.40;;;8.00;99.90;;;;;;5095851;28;20303;-85
2021/01/22 00:25:38;;;;;;;1.13;0.93;;;8.00;99.90;;;;;;5095870;28;20653;-82
2021/01/22 00:28:04;;;;;;;1.33;1.23;;;8.00;99.90;;;;;;5095518;28;20268;-83
2021/01/22 00:30:30;;;;;;;2.07;0.90;;;8.00;99.90;;;;;;5095502;28;20206;-85
2021/01/22 00:32:55;;;;;;;1.30;1.10;;;7.90;99.90;;;;;;5095250;28;20210;-83
2021/01/22 00:35:21;;;;;;;1.37;1.10;;;7.80;99.90;;;;;;5095195;28;20266;-84
2021/01/22 00:37:47;;;;;;;0.83;0.83;;;7.80;99.90;;;;;;5095505;28;20178;-83
2021/01/22 00:40:13;;;;;;;0.83;0.83;;;7.80;99.90;;;;;;5095647;28;20202;-84
2021/01/22 00:42:38;;;;;;;1.00;1.00;;;7.80;99.90;;;;;;5095850;28;20183;-84
2021/01/22 00:45:06;;;;;;;0.80;0.80;;;7.80;99.90;;;;;;5095580;28;20430;-83
2021/01/22 00:47:31;;;;;;;3.93;0.97;;;7.70;99.90;;;;;;5095219;28;20174;-84
2021/01/22 00:49:57;;;;;;;1.20;1.00;;;7.70;99.90;;;;;;5095466;28;20538;-83
2021/01/22 00:52:23;;;;;;;0.93;0.93;;;7.70;99.90;;;;;;5096637;28;20704;-84
2021/01/22 00:54:48;;;;;;;1.00;1.00;;;7.70;99.90;;;;;;5095356;28;20213;-83
2021/01/22 00:57:14;;;;;;;3.67;1.77;;;7.70;99.90;;;;;;5094937;28;20185;-83
2021/01/22 00:59:39;;;;;;;1.13;1.00;;;7.60;99.90;;;;;;5096294;28;20178;-83
2021/01/22 01:02:05;;;;;;;0.70;0.70;;;7.60;99.90;;;;;;5094957;28;20194;-84
2021/01/22 01:04:34;;;;;;;1.20;1.10;;;7.60;99.90;;;;;;5095214;28;20174;-84
2021/01/22 01:06:59;;;;;;;0.93;0.83;;;7.60;99.90;;;;;;5094958;28;20186;-83
2021/01/22 01:09:25;;;;;;;0.90;0.90;;;7.60;99.90;;;;;;5096256;28;20546;-84
2021/01/22 01:11:50;;;;;;;1.20;1.20;;;7.60;99.90;;;;;;5094930;28;20295;-83
2021/01/22 01:14:16;;;;;;;1.67;1.10;;;7.60;99.90;;;;;;5094901;28;20623;-83
2021/01/22 01:16:41;;;;;;;0.93;0.93;;;7.60;99.90;;;;;;5094940;28;20201;-83
2021/01/22 01:19:07;;;;;;;1.13;1.13;;;7.50;99.90;;;;;;5094577;28;20261;-84
2021/01/22 01:21:33;;;;;;;1.23;1.17;;;7.50;99.90;;;;;;5094718;28;20174;-84
2021/01/22 01:23:58;;;;;;;0.80;0.80;;;7.50;99.90;;;;;;5094001;28;20209;-83
2021/01/22 01:26:24;;;;;;;0.87;0.87;;;7.50;99.90;;;;;;5094496;28;20622;-83
2021/01/22 01:28:50;;;;;;;1.47;1.20;;;7.50;99.90;;;;;;5094620;28;20175;-85
2021/01/22 01:31:15;;;;;;;1.50;1.10;;;7.60;99.90;;;;;;5094194;28;20307;-84
2021/01/22 01:33:41;;;;;;;0.70;0.70;;;7.60;99.90;;;;;;5094365;28;20189;-84
2021/01/22 01:36:07;;;;;;;1.47;1.10;;;7.50;99.90;;;;;;5094444;28;20238;-84
2021/01/22 01:38:33;;;;;;;0.53;0.53;;;7.50;99.90;;;;;;5094270;28;20646;-83
2021/01/22 01:40:58;;;;;;;1.00;1.00;;;7.60;99.90;;;;;;5094313;28;20440;-84
2021/01/22 01:43:24;;;;;;;0.80;0.80;;;7.60;99.90;;;;;;5093989;28;20627;-84
2021/01/22 01:45:49;;;;;;;0.90;0.90;;;7.70;99.90;;;;;;5094074;28;20638;-84
2021/01/22 01:48:16;;;;;;;1.10;0.70;;;7.60;99.90;;;;;;5094074;28;20251;-83
2021/01/22 01:50:43;;;;;;;0.80;0.70;;;7.60;99.90;;;;;;5094128;28;20570;-84
2021/01/22 01:53:09;;;;;;;1.53;0.90;;;7.60;99.90;;;;;;5094199;28;20441;-83
2021/01/22 01:55:36;;;;;;;0.90;0.90;;;7.60;99.90;;;;;;5093657;28;20421;-84
2021/01/22 01:58:03;;;;;;;0.60;0.60;;;7.70;99.90;;;;;;5094866;28;20424;-84
2021/01/22 02:00:30;;;;;;;0.70;0.63;;;7.60;99.90;;;;;;5093951;28;20507;-84
2021/01/22 02:02:55;;;;;;;3.80;1.50;;;7.60;99.90;;;;;;5093458;28;20424;-83
2021/01/22 02:05:21;;;;;;;0.70;0.60;;;7.70;99.90;;;;;;5095153;28;20466;-84
2021/01/22 02:07:47;;;;;;;1.40;1.07;;;7.60;99.90;;;;;;5093706;28;20280;-84
2021/01/22 02:10:14;;;;;;;0.70;0.60;;;7.60;99.90;;;;;;5092948;28;20185;-83
2021/01/22 02:12:41;;;;;;;2.50;1.00;;;7.60;99.90;;;;;;5092946;28;20213;-83
2021/01/22 02:15:09;;;;;;;0.70;0.70;;;7.60;99.90;;;;;;5092910;28;20435;-83
2021/01/22 02:17:36;;;;;;;0.90;0.90;;;7.70;99.90;;;;;;5093036;28;20483;-84
2021/01/22 02:20:23;;;;;;;1.60;0.67;;;7.70;99.90;;;;;;5092891;28;20936;-83
2021/01/22 02:22:50;;;;;;;1.37;0.60;;;7.60;99.90;;;;;;5092795;28;20708;-84
2021/01/22 02:25:21;;;;;;;0.80;0.80;;;7.70;99.90;;;;;;5094060;28;20408;-84
2021/01/22 02:27:47;;;;;;;0.80;0.80;;;7.60;99.90;;;;;;5093007;28;20413;-83
2021/01/22 02:30:13;;;;;;;0.70;0.70;;;7.70;99.90;;;;;;5092776;28;20420;-83
2021/01/22 02:32:47;;;;;;;1.30;0.63;;;7.70;99.90;;;;;;5092502;28;20517;-83
2021/01/22 02:35:15;;;;;;;0.80;0.70;;;7.70;99.90;;;;;;5107267;28;20868;-83
2021/01/22 02:37:43;;;;;;;2.67;0.70;;;7.70;99.90;;;;;;5091925;28;20417;-84
2021/01/22 02:40:10;;;;;;;0.50;0.40;;;7.70;99.90;;;;;;5092558;28;20405;-84
2021/01/22 02:42:38;;;;;;;3.87;0.63;;;7.70;99.90;;;;;;5092680;28;20469;-84
2021/01/22 02:45:10;;;;;;;1.70;1.00;;;7.70;99.90;;;;;;5092651;28;20444;-83
2021/01/22 02:47:36;;;;;;;1.70;0.97;;;7.70;99.90;;;;;;5091970;28;20413;-83
2021/01/22 02:50:03;;;;;;;0.83;0.83;;;7.80;99.90;;;;;;5092812;28;20466;-83
2021/01/22 02:52:29;;;;;;;1.57;0.80;;;7.80;99.90;;;;;;5093667;28;20855;-83
2021/01/22 02:54:55;;;;;;;1.30;0.67;;;7.70;99.90;;;;;;5092811;28;20417;-83
2021/01/22 02:57:24;;;;;;;1.33;0.77;;;7.70;99.90;;;;;;5092857;28;20537;-83
2021/01/22 02:59:58;;;;;;;2.00;1.07;;;7.70;99.90;;;;;;5092190;28;20175;-83
2021/01/22 03:02:38;;;;;;;0.50;0.40;;;7.70;99.90;;;;;;5092754;28;20426;-83
2021/01/22 03:05:07;;;;;;;2.30;1.57;;;7.70;99.90;;;;;;5092741;28;20495;-84
2021/01/22 03:07:53;;;;;;;1.53;0.63;;;7.80;99.90;;;;;;5092163;28;20926;-83
2021/01/22 03:10:21;;;;;;;2.60;1.47;;;7.70;99.90;;;;;;5093520;28;20452;-84
2021/01/22 03:12:48;;;;;;;0.80;0.67;;;7.70;99.90;;;;;;5092212;28;20468;-82
2021/01/22 03:15:18;;;;;;;1.20;0.83;;;7.70;99.90;;;;;;5093736;28;20405;-83
2021/01/22 03:17:44;;;;;;;2.47;0.60;;;7.60;99.90;;;;;;5092507;28;20465;-85
2021/01/22 03:20:14;;;;;;;1.30;1.20;;;7.70;99.90;;;;;;5093755;28;20413;-83
2021/01/22 03:22:39;;;;;;;2.70;1.50;;;7.70;99.90;;;;;;5093728;28;20201;-83
2021/01/22 03:25:06;;;;;;;2.30;1.00;;;7.70;99.90;;;;;;5093415;28;20416;-84
2021/01/22 03:27:31;;;;;;;1.00;0.90;;;7.80;99.90;;;;;;5092467;28;20205;-84
2021/01/22 03:29:57;;;;;;;1.90;0.87;;;7.80;99.90;;;;;;5093651;28;20409;-84
2021/01/22 03:32:23;;;;;;;1.60;1.10;;;7.80;99.90;;;;;;5092363;28;20607;-83
2021/01/22 03:34:48;;;;;;;1.07;1.07;;;7.80;99.90;;;;;;5091921;28;20196;-83
2021/01/22 03:37:14;;;;;;;1.60;0.73;;;7.80;99.90;;;;;;5092132;28;20178;-84
2021/01/22 03:39:39;;;;;;;1.03;0.87;;;7.80;99.90;;;;;;5092374;28;20171;-84
2021/01/22 03:42:05;;;;;;;2.20;1.77;;;7.70;99.90;;;;;;5092264;28;20170;-83
2021/01/22 03:44:31;;;;;;;1.87;1.00;;;7.70;99.90;;;;;;5092104;28;20183;-84
2021/01/22 03:46:57;;;;;;;2.40;0.90;;;7.60;99.90;;;;;;5092383;28;20519;-83
2021/01/22 03:49:22;;;;;;;2.77;0.50;;;7.60;99.90;;;;;;5096407;28;20454;-83
2021/01/22 03:51:48;;;;;;;1.00;0.90;;;7.70;99.90;;;;;;5097845;28;20255;-84
2021/01/22 03:54:13;;;;;;;2.63;1.40;;;7.70;99.90;;;;;;5096590;28;20213;-83
2021/01/22 03:56:39;;;;;;;2.20;1.27;;;7.70;99.90;;;;;;5096537;28;20184;-83
2021/01/22 03:59:05;;;;;;;3.77;1.27;;;7.60;99.90;;;;;;5096251;28;20205;-83
2021/01/22 04:01:31;;;;;;;2.13;1.00;;;7.50;99.90;;;;;;5096257;28;20181;-82
2021/01/22 04:03:57;;;;;;;3.20;1.30;;;7.40;99.90;;;;;;5096080;28;20229;-83
2021/01/22 04:06:23;;;;;;;4.27;1.07;;;7.50;99.90;;;;;;5095909;28;20428;-83
2021/01/22 04:08:49;;;;;;;3.50;0.77;;;7.50;99.90;;;;;;5095691;28;20942;-82
2021/01/22 04:11:15;;;;;;;1.57;1.10;;;7.50;99.90;;;;;;5095997;28;20284;-83
2021/01/22 04:13:41;;;;;;;4.23;1.20;;;7.40;99.90;;;;;;5095779;28;20515;-84
2021/01/22 04:16:06;;;;;;;3.73;1.00;;;7.40;99.90;;;;;;5095806;28;20452;-83
2021/01/22 04:18:32;;;;;;;4.80;2.50;;;7.30;99.90;;;;;;5095521;28;20538;-83
2021/01/22 04:20:58;;;;;;;2.37;0.73;;;7.30;99.90;;;;;;5097106;28;20174;-83
2021/01/22 04:23:23;;;;;;;1.90;0.80;;;7.30;99.90;;;;;;5096987;28;20197;-83
2021/01/22 04:25:50;;;;;;;0.80;0.80;;;7.30;99.90;;;;;;5097072;28;20590;-83
2021/01/22 04:28:15;;;;;;;7.10;1.03;;;7.30;99.90;;;;;;5097493;28;20175;-83
2021/01/22 04:30:41;;;;;;;2.17;1.00;;;7.30;99.90;;;;;;5095622;28;20543;-83
2021/01/22 04:33:07;;;;;;;1.00;0.90;;;7.30;99.90;;;;;;5097002;28;20210;-83
2021/01/22 04:35:32;;;;;;;0.77;0.77;;;7.30;99.90;;;;;;5095787;28;20195;-82
2021/01/22 04:37:58;;;;;;;1.20;0.87;;;7.30;99.90;;;;;;5095649;28;20277;-83
2021/01/22 04:40:25;;;;;;;1.50;0.60;;;7.30;99.90;;;;;;5095651;28;20185;-83
2021/01/22 04:42:51;;;;;;;0.93;0.80;;;7.30;99.90;;;;;;5096332;28;20871;-82
2021/01/22 04:45:17;;;;;;;1.10;1.00;;;7.30;99.90;;;;;;5095289;28;20445;-82
2021/01/22 04:47:42;;;;;;;2.97;1.30;;;7.20;99.90;;;;;;5096464;28;20171;-83
2021/01/22 04:50:15;;;;;;;2.70;1.17;;;7.30;99.90;;;;;;5095150;28;20259;-83
2021/01/22 04:52:43;;;;;;;1.63;1.30;;;7.30;99.90;;;;;;5096136;28;20336;-83
2021/01/22 04:55:17;;;;;;;1.30;1.10;;;7.30;99.90;;;;;;5095126;28;20547;-83
2021/01/22 04:57:46;;;;;;;1.80;1.30;;;7.30;99.90;;;;;;5094783;28;20519;-83
2021/01/22 05:00:14;;;;;;;2.60;1.40;;;7.20;99.90;;;;;;5094348;28;20496;-82
2021/01/22 05:02:39;;;;;;;6.27;2.00;;;7.30;99.90;;;;;;5094873;28;20421;-84
2021/01/22 05:05:09;;;;;;;2.27;1.17;;;7.30;99.90;;;;;;5094725;28;20447;-84
2021/01/22 05:07:35;;;;;;;2.33;1.17;;;7.30;99.90;;;;;;5094920;28;20175;-82
2021/01/22 05:10:01;;;;;;;1.40;0.87;;;7.30;99.90;;;;;;5094425;28;20420;-81
2021/01/22 05:12:38;;;;;;;3.87;1.00;;;7.20;99.90;;;;;;5094349;28;20529;-83
2021/01/22 05:15:12;;;;;;;1.40;1.23;;;7.20;99.90;;;;;;5096334;28;20521;-83
2021/01/22 05:18:02;;;;;;;1.43;1.10;;;7.20;99.90;;;;;;5094005;28;20463;-83
2021/01/22 05:20:35;;;;;;;1.67;1.57;;;7.20;99.90;;;;;;5089260;28;20424;-83
2021/01/22 05:23:03;;;;;;;1.33;1.20;;;7.10;99.90;;;;;;5095672;28;20427;-84
2021/01/22 05:25:28;;;;;;;2.73;1.40;;;7.20;99.90;;;;;;5094617;28;20954;-83
2021/01/22 05:27:56;;;;;;;1.80;1.40;;;7.20;99.90;;;;;;5094444;28;20515;-83
2021/01/22 05:30:23;;;;;;;2.10;1.43;;;7.20;99.90;;;;;;5093974;28;20260;-84
2021/01/22 05:32:49;;;;;;;1.70;1.30;;;7.20;99.90;;;;;;5094561;28;20512;-84
2021/01/22 05:35:31;;;;;;;2.83;1.20;;;7.20;99.90;;;;;;5093932;28;20412;-83
2021/01/22 05:37:58;;;;;;;2.60;1.23;;;7.20;99.90;;;;;;5094237;28;20420;-83
2021/01/22 05:40:24;;;;;;;1.43;1.20;;;7.20;99.90;;;;;;5093716;28;20491;-83
2021/01/22 05:42:52;;;;;;;2.17;0.97;;;7.20;99.90;;;;;;5094096;28;20511;-83
2021/01/22 05:45:36;;;;;;;3.07;2.60;;;7.20;99.90;;;;;;5094142;28;20475;-85
2021/01/22 05:48:02;;;;;;;3.10;1.90;;;7.20;99.90;;;;;;5094142;28;20460;-84
2021/01/22 05:50:46;;;;;;;1.73;0.90;;;7.20;99.90;;;;;;5093758;28;20413;-83
2021/01/22 05:53:13;;;;;;;1.37;0.97;;;7.20;99.90;;;;;;5093963;28;20464;-84
2021/01/22 05:55:39;;;;;;;2.40;0.83;;;7.20;99.90;;;;;;5093909;28;20413;-84
2021/01/22 05:58:04;;;;;;;0.43;0.43;;;7.30;99.90;;;;;;5094996;28;20908;-84
2021/01/22 06:00:30;;;;;;;2.80;0.60;;;7.30;99.90;;;;;;5095185;28;20417;-84
2021/01/22 06:02:56;;;;;;;0.80;0.80;;;7.40;99.90;;;;;;5094832;28;20182;-82
2021/01/22 06:05:28;;;;;;;0.70;0.70;;;7.30;99.90;;;;;;5094175;28;20174;-84
2021/01/22 06:08:07;;;;;;;1.67;0.87;;;7.40;99.90;;;;;;5094376;28;20174;-84
2021/01/22 06:10:39;;;;;;;7.07;6.40;;;7.40;99.90;;;;;;5094359;28;20413;-84
2021/01/22 06:13:08;;;;;;;1.47;0.97;;;7.40;99.90;;;;;;5095949;28;20483;-84
2021/01/22 06:15:35;;;;;;;1.40;1.30;;;7.40;99.90;;;;;;5094346;28;20424;-87
2021/01/22 06:18:02;;;;;;;1.93;1.30;;;7.40;99.90;;;;;;5094665;28;21022;-84
2021/01/22 06:20:30;;;;;;;1.23;0.70;;;7.40;99.90;;;;;;5089423;28;20420;-84
2021/01/22 06:23:12;;;;;;;1.80;0.60;;;7.40;99.90;;;;;;5091284;28;20435;-84
2021/01/22 06:25:42;;;;;;;0.93;0.93;;;7.40;99.90;;;;;;5092639;28;20416;-85
2021/01/22 06:28:12;;;;;;;1.57;1.00;;;7.30;99.90;;;;;;5092140;28;20416;-87
2021/01/22 06:30:39;;;;;;;3.53;2.60;;;7.30;99.90;;;;;;5092135;28;20468;-81
2021/01/22 06:33:06;;;;;;;2.10;1.70;;;7.40;99.90;;;;;;5090121;28;20575;-82
2021/01/22 06:35:34;;;;;;;4.33;4.00;;;7.40;99.90;;;;;;5090944;28;20439;-83
2021/01/22 06:38:04;;;;;;;1.80;1.70;;;7.40;99.90;;;;;;5091368;28;20409;-82
2021/01/22 06:40:30;;;;;;;1.47;1.37;;;7.40;99.90;;;;;;5091949;28;20432;-82
2021/01/22 06:42:56;;;;;;;2.40;1.30;;;7.40;99.90;;;;;;5093172;28;20474;-83
2021/01/22 06:45:23;;;;;;;4.07;3.67;;;7.40;99.90;;;;;;5091931;28;20189;-85
2021/01/22 06:48:15;;;;;;;6.00;5.60;;;7.40;99.90;;;;;;5091817;28;20519;-81
2021/01/22 06:50:41;;;;;;;1.70;1.17;;;7.40;99.90;;;;;;5089893;28;20952;-84
2021/01/22 06:53:15;;;;;;;1.00;0.87;;;7.40;99.90;;;;;;5091563;28;20479;-84
2021/01/22 06:56:07;;;;;;;1.27;1.27;;;7.40;99.90;;;;;;5092183;28;20185;-84
2021/01/22 06:58:33;;;;;;;2.00;0.73;;;7.40;99.90;;;;;;5087939;28;20423;-84
2021/01/22 07:01:04;;;;;;;2.77;1.03;;;7.40;99.90;;;;;;5091782;28;20499;-83
2021/01/22 07:03:35;;;;;;;1.57;0.80;;;7.50;99.90;;;;;;5092752;28;20170;-84
2021/01/22 07:06:06;;;;;;;2.20;0.90;;;7.40;99.90;;;;;;5093672;28;20462;-82
2021/01/22 07:08:53;;;;;;;1.83;0.80;;;7.40;99.90;;;;;;5091727;28;20423;-82
2021/01/22 07:11:19;;;;;;;0.60;0.60;;;7.40;99.90;;;;;;5090756;28;20464;-81
2021/01/22 07:13:47;;;;;;;0.70;0.70;;;7.40;99.90;;;;;;5091965;28;20784;-84
2021/01/22 07:16:16;;;;;;;0.87;0.60;;;7.40;99.90;;;;;;5091758;28;20270;-84
2021/01/22 07:18:52;;;;;;;0.80;0.80;;;7.40;99.90;;;;;;5091831;28;20482;-83
2021/01/22 07:21:44;;;;;;;2.40;0.90;;;7.50;99.90;;;;;;5092037;28;20408;-84
2021/01/22 07:24:16;;;;;;;1.97;0.80;;;7.50;99.90;;;;;;5093687;28;20409;-85
2021/01/22 07:26:46;;;;;;;1.00;0.90;;;7.50;99.90;;;;;;5091848;28;20412;-84
2021/01/22 07:29:15;;;;;;;0.80;0.80;;;7.60;99.90;;;;;;5091337;28;20432;-83
2021/01/22 07:32:11;;;;;;;3.20;0.70;;;7.60;99.90;;;;;;5092594;28;20472;-83
2021/01/22 07:34:47;;;;;;;0.70;0.67;;;7.50;99.90;;;;;;5092186;28;20472;-86
2021/01/22 07:37:22;;;;;;;0.97;0.93;;;7.60;99.90;;;;;;5090226;28;20420;-85
2021/01/22 07:39:50;;;;;;;0.77;0.77;;;7.60;99.90;;;;;;5091584;28;20429;-83
2021/01/22 07:42:21;;;;;;;1.00;0.60;;;7.70;99.90;;;;;;5092920;28;20470;-84
2021/01/22 07:44:51;;;;;;;1.13;0.77;;;7.70;99.90;;;;;;5092100;28;20460;-84
2021/01/22 07:47:30;;;;;;;0.70;0.70;;;7.70;99.90;;;;;;5091162;28;20478;-82
2021/01/22 07:49:56;;;;;;;2.97;0.97;;;7.80;99.90;;;;;;5090986;28;20432;-83
2021/01/22 07:52:22;;;;;;;2.13;0.87;;;7.80;99.90;;;;;;5090983;28;20808;-83
2021/01/22 07:54:48;;;;;;;2.30;0.87;;;7.80;99.90;;;;;;5090746;28;20174;-83
2021/01/22 07:57:19;;;;;;;1.33;0.60;;;7.80;99.90;;;;;;5090524;28;20428;-83
2021/01/22 07:59:45;;;;;;;1.90;0.63;;;7.90;99.90;;;;;;5091618;28;20777;-81
2021/01/22 08:02:16;;;;;;;1.63;0.87;;;8.00;99.90;;;;;;5092088;28;20449;-80
2021/01/22 08:04:42;;;;;;;2.43;0.93;;;8.20;99.90;;;;;;5090889;28;20424;-83
2021/01/22 08:07:07;;;;;;;2.80;1.10;;;8.70;99.90;;;;;;5090465;28;20424;-84
2021/01/22 08:09:33;;;;;;;3.90;0.93;;;9.20;99.90;;;;;;5089753;28;20597;-84
2021/01/22 08:12:11;;;;;;;2.00;0.80;;;9.60;99.90;;;;;;5085805;28;20736;-87
2021/01/22 08:14:38;;;;;;;1.20;0.80;;;9.90;99.90;;;;;;5075001;28;20190;-84
2021/01/22 08:17:05;;;;;;;1.00;0.90;;;10.40;99.90;;;;;;5077147;28;20548;-83
2021/01/22 08:19:32;;;;;;;4.37;1.10;;;10.40;99.90;;;;;;5080400;28;20448;-85
2021/01/22 08:21:59;;;;;;;1.70;0.90;;;10.60;99.90;;;;;;5078579;28;21042;-83
2021/01/22 08:24:25;;;;;;;1.80;1.03;;;10.60;99.90;;;;;;5077394;28;20508;-86
2021/01/22 08:27:03;;;;;;;1.60;1.03;;;10.60;99.90;;;;;;5076405;28;20513;-82
2021/01/22 08:29:30;;;;;;;1.33;0.77;;;10.20;99.90;;;;;;5072810;28;20558;-82
2021/01/22 08:31:56;;;;;;;2.07;0.97;;;10.30;99.90;;;;;;5077730;28;20572;-82
2021/01/22 08:34:23;;;;;;;1.53;0.97;;;10.60;99.90;;;;;;5080610;28;20437;-83
2021/01/22 08:36:50;;;;;;;1.23;1.10;;;11.10;99.90;;;;;;5073313;28;20555;-82
2021/01/22 08:39:16;;;;;;;2.30;1.20;;;11.30;99.90;;;;;;5073362;28;20433;-83
2021/01/22 08:41:42;;;;;;;5.20;1.23;;;11.40;99.90;;;;;;5073957;28;20953;-84
2021/01/22 08:44:08;;;;;;;3.00;1.00;;;11.40;99.90;;;;;;5074758;28;20175;-77
2021/01/22 08:46:45;;;;;;;1.70;1.00;;;11.50;99.90;;;;;;5074993;28;20266;-84
2021/01/22 08:49:13;;;;;;;2.40;0.90;;;11.60;99.90;;;;;;5074145;28;20940;-83
2021/01/22 08:51:39;;;;;;;1.30;0.77;;;11.90;99.90;;;;;;5073713;28;20468;-83
2021/01/22 08:54:05;;;;;;;2.50;0.90;;;11.90;99.90;;;;;;5073176;28;21226;-83
2021/01/22 08:56:31;;;;;;;1.60;1.17;;;11.80;99.90;;;;;;5073342;28;20437;-82
2021/01/22 08:59:07;;;;;;;1.23;0.87;;;12.00;99.90;;;;;;5073069;28;20186;-84
2021/01/22 09:01:56;;;;;;;1.03;0.63;;;11.80;99.90;;;;;;5073803;28;20216;-83
2021/01/22 09:04:34;;;;;;;1.73;0.90;;;11.10;99.90;;;;;;5073352;28;20913;-83
2021/01/22 09:07:05;;;;;;;1.00;0.90;;;10.70;99.90;;;;;;5073143;28;20474;-82
2021/01/22 09:09:48;;;;;;;0.97;0.80;;;10.40;99.90;;;;;;5075876;28;20434;-83
2021/01/22 09:12:27;;;;;;;1.03;0.70;;;10.10;99.90;;;;;;5093355;28;20494;-82
2021/01/22 09:14:57;;;;;;;1.63;0.97;;;10.00;99.90;;;;;;5094843;28;20424;-83
2021/01/22 09:17:34;;;;;;;1.60;1.10;;;10.10;99.90;;;;;;5094490;28;20482;-83
2021/01/22 09:20:05;;;;;;;0.80;0.80;;;10.00;99.90;;;;;;5093368;28;20416;-78
2021/01/22 09:22:32;;;;;;;2.00;0.80;;;9.90;99.90;;;;;;5093635;28;20757;-83
2021/01/22 09:24:59;;;;;;;3.60;0.97;;;9.90;99.90;;;;;;5093375;28;20512;-83
2021/01/22 09:27:24;;;;;;;1.97;0.93;;;10.00;99.90;;;;;;5091287;28;20436;-85
2021/01/22 09:29:50;;;;;;;1.43;0.97;;;10.00;99.90;;;;;;5093412;28;20420;-85
2021/01/22 09:32:16;;;;;;;1.00;0.60;;;10.10;99.90;;;;;;5090982;28;20241;-83
2021/01/22 09:34:42;;;;;;;2.53;1.27;;;10.10;99.90;;;;;;5092772;28;20192;-84
2021/01/22 09:37:08;;;;;;;0.60;0.60;;;10.20;99.90;;;;;;5093196;28;20420;-85
2021/01/22 09:39:33;;;;;;;2.00;1.27;;;10.10;99.90;;;;;;5093899;28;20200;-84
2021/01/22 09:41:59;;;;;;;1.23;1.13;;;10.20;99.90;;;;;;5093644;28;20758;-81
2021/01/22 09:44:25;;;;;;;0.77;0.70;;;10.30;99.90;;;;;;5094885;28;20170;-81
2021/01/22 09:46:50;;;;;;;4.70;0.80;;;10.20;99.90;;;;;;5094917;28;20197;-83
2021/01/22 09:49:16;;;;;;;4.73;1.30;;;10.10;99.90;;;;;;5093655;28;20182;-81
2021/01/22 09:51:41;;;;;;;3.50;1.00;;;9.90;99.90;;;;;;5093489;28;20229;-82
2021/01/22 09:54:07;;;;;;;2.97;1.63;;;9.90;99.90;;;;;;5095160;28;20304;-83
2021/01/22 09:56:33;;;;;;;2.77;0.90;;;10.00;99.90;;;;;;5093575;28;20181;-83
2021/01/22 09:58:58;;;;;;;1.10;0.90;;;10.00;99.90;;;;;;5093780;28;20182;-83
2021/01/22 10:01:24;;;;;;;3.70;1.40;;;10.00;99.90;;;;;;5093213;28;20171;-82
2021/01/22 10:03:49;;;;;;;1.47;0.63;;;10.10;99.90;;;;;;5095214;28;20251;-80
2021/01/22 10:06:15;;;;;;;0.90;0.90;;;10.20;99.90;;;;;;5092933;28;20175;-83
2021/01/22 10:08:40;;;;;;;2.10;0.90;;;10.30;99.90;;;;;;5093581;28;20670;-82
2021/01/22 10:11:06;;;;;;;2.10;0.97;;;10.30;99.90;;;;;;5092718;28;20239;-83
2021/01/22 10:13:31;;;;;;;4.30;1.67;;;10.40;99.90;;;;;;5093322;28;20182;-82
2021/01/22 10:15:57;;;;;;;3.00;1.30;;;10.50;99.90;;;;;;5093676;28;20378;-82
2021/01/22 10:18:24;;;;;;;6.53;1.30;;;10.50;99.90;;;;;;5093245;28;20228;-83
2021/01/22 10:20:50;;;;;;;1.07;0.83;;;10.60;99.90;;;;;;5092503;28;20224;-84
2021/01/22 10:23:16;;;;;;;2.97;0.90;;;10.60;99.90;;;;;;5093069;28;20880;-84
2021/01/22 10:25:42;;;;;;;4.17;1.17;;;10.70;99.90;;;;;;5092795;28;20417;-83
2021/01/22 10:28:07;;;;;;;2.77;0.80;;;10.70;99.90;;;;;;5093174;28;20182;-83
2021/01/22 10:30:33;;;;;;;15.10;2.70;;;10.80;99.90;;;;;;5092555;28;20507;-83
2021/01/22 10:32:58;;;;;;;3.60;1.47;;;10.90;99.90;;;;;;5094287;28;20206;-86
2021/01/22 10:35:24;;;;;;;12.47;2.70;;;11.00;99.90;;;;;;5094037;28;20277;-80
2021/01/22 10:37:50;;;;;;;2.13;0.93;;;11.30;99.90;;;;;;5092346;28;20178;-83
2021/01/22 10:40:16;;;;;;;3.73;0.90;;;11.60;99.90;;;;;;5092398;28;20179;-83
2021/01/22 10:42:41;;;;;;;3.17;1.27;;;11.80;99.90;;;;;;5092616;28;20166;-84
2021/01/22 10:45:07;;;;;;;2.80;1.40;;;11.80;99.90;;;;;;5092897;28;20181;-84
2021/01/22 10:47:33;;;;;;;5.40;1.33;;;12.30;99.90;;;;;;5092254;28;20174;-82
2021/01/22 10:49:59;;;;;;;2.40;1.00;;;12.40;99.90;;;;;;5092281;28;20421;-83
2021/01/22 10:52:25;;;;;;;8.67;1.37;;;12.30;99.90;;;;;;5092017;28;20330;-82
2021/01/22 10:54:51;;;;;;;3.97;1.70;;;12.20;99.90;;;;;;5093428;28;20863;-83
2021/01/22 10:57:16;;;;;;;5.37;1.90;;;12.20;99.90;;;;;;5091673;28;20460;-83
2021/01/22 10:59:42;;;;;;;1.60;0.77;;;12.50;99.90;;;;;;5093113;28;20170;-84
2021/01/22 11:02:09;;;;;;;1.67;1.00;;;13.10;99.90;;;;;;5094046;28;20202;-83
2021/01/22 11:04:35;;;;;;;2.73;1.27;;;13.20;99.90;;;;;;5092405;28;20431;-83
2021/01/22 11:07:03;;;;;;;4.47;1.90;;;12.90;99.90;;;;;;5093359;28;20412;-82
2021/01/22 11:09:30;;;;;;;2.83;1.17;;;12.70;99.90;;;;;;5092474;28;20428;-82
2021/01/22 11:11:55;;;;;;;17.93;3.17;;;12.50;99.90;;;;;;5092078;28;20511;-83
2021/01/22 11:14:21;;;;;;;15.57;4.20;;;12.60;99.90;;;;;;5091946;28;20527;-86
2021/01/22 11:16:47;;;;;;;2.23;1.00;;;12.70;99.90;;;;;;5091260;28;20649;-82
2021/01/22 11:19:12;;;;;;;2.10;0.90;;;12.60;99.90;;;;;;5093338;28;20174;-83
2021/01/22 11:21:38;;;;;;;10.73;2.63;;;12.60;99.90;;;;;;5093586;28;20186;-82
2021/01/22 11:24:04;;;;;;;3.80;1.03;;;12.50;99.90;;;;;;5092732;28;20170;-83
2021/01/22 11:26:30;;;;;;;4.40;1.23;;;12.40;99.90;;;;;;5093423;28;20299;-82
2021/01/22 11:28:55;;;;;;;13.30;2.93;;;12.40;99.90;;;;;;5093420;28;20426;-83
2021/01/22 11:31:21;;;;;;;6.00;1.30;;;12.30;99.90;;;;;;5093660;28;20238;-84
2021/01/22 11:33:46;;;;;;;7.10;2.77;;;12.50;99.90;;;;;;5092338;28;20179;-83
2021/01/22 11:36:13;;;;;;;17.73;3.37;;;12.50;99.90;;;;;;5094607;28;20261;-84
2021/01/22 11:38:38;;;;;;;14.93;2.63;;;12.60;99.90;;;;;;5093370;28;20549;-83
2021/01/22 11:41:04;;;;;;;5.37;1.60;;;12.80;99.90;;;;;;5092263;28;20420;-82
2021/01/22 11:43:30;;;;;;;9.17;2.10;;;12.90;99.90;;;;;;5093204;28;20233;-84
2021/01/22 11:45:55;;;;;;;1.73;1.00;;;13.40;99.90;;;;;;5092112;28;20186;-83
2021/01/22 11:48:21;;;;;;;1.40;1.03;;;13.60;99.90;;;;;;5091987;28;20179;-83
2021/01/22 11:50:46;;;;;;;3.87;1.23;;;13.60;99.90;;;;;;5092949;28;20175;-83
2021/01/22 11:53:12;;;;;;;5.43;1.50;;;13.50;99.90;;;;;;5094589;28;20202;-84
2021/01/22 11:55:38;;;;;;;7.57;1.50;;;13.20;99.90;;;;;;5092612;28;20182;-86
2021/01/22 11:58:07;;;;;;;2.10;1.13;;;13.00;99.90;;;;;;5092181;28;20179;-82
2021/01/22 12:00:32;;;;;;;34.63;5.53;;;12.80;99.90;;;;;;5092083;28;20448;-83
2021/01/22 12:02:58;;;;;;;5.37;1.40;;;12.60;99.90;;;;;;5093200;28;20474;-82
2021/01/22 12:05:24;;;;;;;5.73;1.67;;;12.50;99.90;;;;;;5092076;28;20168;-83
2021/01/22 12:07:50;;;;;;;12.70;2.77;;;12.50;99.90;;;;;;5092097;28;20261;-85
2021/01/22 12:10:15;;;;;;;9.80;2.97;;;12.60;99.90;;;;;;5097941;28;20169;-85
2021/01/22 12:12:44;;;;;;;75.00;11.33;;;12.60;99.90;;;;;;5096908;28;20217;-83
2021/01/22 12:15:10;;;;;;;9.37;2.03;;;12.60;99.90;;;;;;5095844;28;20659;-85
2021/01/22 12:17:36;;;;;;;33.20;5.60;;;12.50;99.90;;;;;;5101241;28;20879;-84
2021/01/22 12:20:02;;;;;;;3.93;1.50;;;12.60;99.90;;;;;;5096433;28;20448;-84
2021/01/22 12:22:28;;;;;;;3.57;1.40;;;12.60;99.90;;;;;;5095695;28;20330;-83
2021/01/22 12:24:53;;;;;;;6.57;1.37;;;12.60;99.90;;;;;;5095636;28;20425;-81
2021/01/22 12:27:19;;;;;;;6.43;1.33;;;12.60;99.90;;;;;;5096155;28;20194;-84
2021/01/22 12:29:44;;;;;;;7.70;1.87;;;12.70;99.90;;;;;;5096127;28;20174;-87
2021/01/22 12:32:10;;;;;;;17.63;2.67;;;12.70;99.90;;;;;;5096595;28;20230;-83
2021/01/22 12:34:35;;;;;;;2.30;1.83;;;12.60;99.90;;;;;;5095110;28;20170;-83
2021/01/22 12:37:01;;;;;;;5.30;1.60;;;12.60;99.90;;;;;;5095666;28;20213;-84
2021/01/22 12:39:27;;;;;;;5.00;1.37;;;12.50;99.90;;;;;;5095965;28;20194;-84
2021/01/22 12:41:52;;;;;;;5.23;1.50;;;12.40;99.90;;;;;;5095646;28;20256;-83
2021/01/22 12:44:18;;;;;;;4.73;1.63;;;12.30;99.90;;;;;;5095531;28;20232;-84
2021/01/22 12:46:44;;;;;;;4.13;1.40;;;12.20;99.90;;;;;;5095860;28;20170;-82
2021/01/22 12:49:09;;;;;;;12.87;2.33;;;12.10;99.90;;;;;;5095118;28;20261;-83
2021/01/22 12:51:35;;;;;;;2.80;1.30;;;12.00;99.90;;;;;;5095563;28;20229;-83
2021/01/22 12:54:00;;;;;;;3.00;1.80;;;12.00;99.90;;;;;;5097242;28;20182;-84
2021/01/22 12:56:26;;;;;;;1.07;1.00;;;12.10;99.90;;;;;;5095493;28;20170;-84